sensor_id;sensor_type;location;lat;lon;timestamp;P1;durP1;ratioP1;P2;durP2;ratioP2
80681;SDS011;70045;40.200;44.582;2024-03-23T00:55:12;7.10;;;2.70;;
80681;SDS011;70045;40.200;44.582;2024-03-23T00:57:40;5.97;;;2.60;;
80681;SDS011;70045;40.200;44.582;2024-03-23T01:00:05;4.07;;;2.17;;
80681;SDS011;70045;40.200;44.582;2024-03-23T01:02:32;4.18;;;2.13;;
80681;SDS011;70045;40.200;44.582;2024-03-23T01:04:58;3.88;;;2.03;;
80681;SDS011;70045;40.200;44.582;2024-03-23T01:07:23;5.80;;;2.15;;
80681;SDS011;70045;40.200;44.582;2024-03-23T01:09:49;4.63;;;1.83;;
80681;SDS011;70045;40.200;44.582;2024-03-23T01:12:14;4.50;;;2.10;;
80681;SDS011;70045;40.200;44.582;2024-03-23T01:14:40;3.97;;;1.88;;
80681;SDS011;70045;40.200;44.582;2024-03-23T01:17:05;6.13;;;2.17;;
80681;SDS011;70045;40.200;44.582;2024-03-23T01:19:31;8.82;;;2.70;;
80681;SDS011;70045;40.200;44.582;2024-03-23T01:21:58;8.52;;;2.60;;
80681;SDS011;70045;40.200;44.582;2024-03-23T01:24:23;6.78;;;2.35;;
80681;SDS011;70045;40.200;44.582;2024-03-23T01:26:49;5.70;;;2.38;;
80681;SDS011;70045;40.200;44.582;2024-03-23T01:29:22;4.13;;;1.58;;
80681;SDS011;70045;40.200;44.582;2024-03-23T01:31:47;4.38;;;1.73;;
80681;SDS011;70045;40.200;44.582;2024-03-23T01:34:13;4.38;;;1.88;;
80681;SDS011;70045;40.200;44.582;2024-03-23T01:36:38;4.10;;;1.50;;
80681;SDS011;70045;40.200;44.582;2024-03-23T01:39:04;1.75;;;1.27;;
80681;SDS011;70045;40.200;44.582;2024-03-23T01:41:29;3.33;;;1.50;;
80681;SDS011;70045;40.200;44.582;2024-03-23T01:43:55;3.30;;;1.60;;
80681;SDS011;70045;40.200;44.582;2024-03-23T01:46:21;5.15;;;1.90;;
80681;SDS011;70045;40.200;44.582;2024-03-23T01:48:46;6.05;;;2.10;;
80681;SDS011;70045;40.200;44.582;2024-03-23T01:51:12;5.85;;;2.28;;
80681;SDS011;70045;40.200;44.582;2024-03-23T01:53:38;5.90;;;1.90;;
80681;SDS011;70045;40.200;44.582;2024-03-23T01:56:04;7.38;;;2.60;;
80681;SDS011;70045;40.200;44.582;2024-03-23T01:58:32;7.05;;;2.70;;
80681;SDS011;70045;40.200;44.582;2024-03-23T02:00:57;4.93;;;2.20;;
80681;SDS011;70045;40.200;44.582;2024-03-23T02:03:23;5.70;;;2.20;;
80681;SDS011;70045;40.200;44.582;2024-03-23T02:05:49;4.65;;;1.77;;
80681;SDS011;70045;40.200;44.582;2024-03-23T02:08:16;2.65;;;1.50;;
80681;SDS011;70045;40.200;44.582;2024-03-23T02:10:43;4.13;;;1.70;;
80681;SDS011;70045;40.200;44.582;2024-03-23T02:13:09;6.32;;;2.35;;
80681;SDS011;70045;40.200;44.582;2024-03-23T02:15:34;3.80;;;1.85;;
80681;SDS011;70045;40.200;44.582;2024-03-23T02:18:00;2.95;;;1.50;;
80681;SDS011;70045;40.200;44.582;2024-03-23T02:20:25;3.00;;;1.48;;
80681;SDS011;70045;40.200;44.582;2024-03-23T02:22:53;3.47;;;1.40;;
80681;SDS011;70045;40.200;44.582;2024-03-23T02:25:18;3.15;;;1.50;;
80681;SDS011;70045;40.200;44.582;2024-03-23T02:27:44;4.03;;;1.85;;
80681;SDS011;70045;40.200;44.582;2024-03-23T02:32:45;1.67;;;1.40;;
80681;SDS011;70045;40.200;44.582;2024-03-23T02:35:12;2.05;;;1.50;;
80681;SDS011;70045;40.200;44.582;2024-03-23T02:37:38;3.05;;;1.50;;
80681;SDS011;70045;40.200;44.582;2024-03-23T02:40:03;2.72;;;1.60;;
80681;SDS011;70045;40.200;44.582;2024-03-23T02:42:29;2.35;;;1.40;;
80681;SDS011;70045;40.200;44.582;2024-03-23T02:44:54;5.57;;;1.67;;
80681;SDS011;70045;40.200;44.582;2024-03-23T02:47:20;2.80;;;1.50;;
80681;SDS011;70045;40.200;44.582;2024-03-23T02:49:46;1.75;;;1.40;;
80681;SDS011;70045;40.200;44.582;2024-03-23T02:52:11;2.97;;;1.55;;
80681;SDS011;70045;40.200;44.582;2024-03-23T02:54:36;1.90;;;1.30;;
80681;SDS011;70045;40.200;44.582;2024-03-23T02:57:02;2.05;;;1.40;;
80681;SDS011;70045;40.200;44.582;2024-03-23T02:59:28;1.77;;;1.48;;
80681;SDS011;70045;40.200;44.582;2024-03-23T03:01:53;2.17;;;1.42;;
80681;SDS011;70045;40.200;44.582;2024-03-23T03:04:19;2.13;;;1.60;;
80681;SDS011;70045;40.200;44.582;2024-03-23T03:06:47;2.47;;;1.40;;
80681;SDS011;70045;40.200;44.582;2024-03-23T03:09:13;2.70;;;1.50;;
80681;SDS011;70045;40.200;44.582;2024-03-23T03:11:39;1.20;;;1.05;;
80681;SDS011;70045;40.200;44.582;2024-03-23T03:14:04;1.40;;;1.23;;
80681;SDS011;70045;40.200;44.582;2024-03-23T03:16:30;3.30;;;1.23;;
80681;SDS011;70045;40.200;44.582;2024-03-23T03:18:55;2.30;;;1.20;;
80681;SDS011;70045;40.200;44.582;2024-03-23T03:21:21;3.15;;;1.20;;
80681;SDS011;70045;40.200;44.582;2024-03-23T03:23:48;2.40;;;1.40;;
80681;SDS011;70045;40.200;44.582;2024-03-23T03:26:13;1.80;;;1.42;;
80681;SDS011;70045;40.200;44.582;2024-03-23T03:28:39;3.17;;;1.58;;
80681;SDS011;70045;40.200;44.582;2024-03-23T03:31:04;1.63;;;1.35;;
80681;SDS011;70045;40.200;44.582;2024-03-23T03:33:30;1.48;;;1.27;;
80681;SDS011;70045;40.200;44.582;2024-03-23T03:35:56;1.55;;;1.23;;
80681;SDS011;70045;40.200;44.582;2024-03-23T03:38:21;2.20;;;1.38;;
80681;SDS011;70045;40.200;44.582;2024-03-23T03:40:46;1.83;;;1.35;;
80681;SDS011;70045;40.200;44.582;2024-03-23T03:43:12;3.08;;;1.90;;
80681;SDS011;70045;40.200;44.582;2024-03-23T03:45:38;3.20;;;1.48;;
80681;SDS011;70045;40.200;44.582;2024-03-23T03:48:04;1.70;;;1.50;;
80681;SDS011;70045;40.200;44.582;2024-03-23T03:50:30;4.22;;;1.70;;
80681;SDS011;70045;40.200;44.582;2024-03-23T03:52:56;2.35;;;1.80;;
80681;SDS011;70045;40.200;44.582;2024-03-23T03:55:21;4.75;;;1.77;;
80681;SDS011;70045;40.200;44.582;2024-03-23T03:57:47;3.42;;;2.13;;
80681;SDS011;70045;40.200;44.582;2024-03-23T04:00:13;3.22;;;1.90;;
80681;SDS011;70045;40.200;44.582;2024-03-23T04:02:38;3.15;;;1.95;;
80681;SDS011;70045;40.200;44.582;2024-03-23T04:05:04;3.25;;;1.92;;
80681;SDS011;70045;40.200;44.582;2024-03-23T04:07:30;4.68;;;2.13;;
80681;SDS011;70045;40.200;44.582;2024-03-23T04:09:56;4.82;;;2.17;;
80681;SDS011;70045;40.200;44.582;2024-03-23T04:12:22;5.97;;;2.38;;
80681;SDS011;70045;40.200;44.582;2024-03-23T04:14:48;4.60;;;2.33;;
80681;SDS011;70045;40.200;44.582;2024-03-23T04:17:14;2.97;;;2.10;;
80681;SDS011;70045;40.200;44.582;2024-03-23T04:19:39;3.90;;;1.77;;
80681;SDS011;70045;40.200;44.582;2024-03-23T04:22:05;1.83;;;1.52;;
80681;SDS011;70045;40.200;44.582;2024-03-23T04:24:32;2.10;;;1.33;;
80681;SDS011;70045;40.200;44.582;2024-03-23T04:26:57;3.33;;;1.42;;
80681;SDS011;70045;40.200;44.582;2024-03-23T04:29:22;1.48;;;1.15;;
80681;SDS011;70045;40.200;44.582;2024-03-23T04:31:48;1.15;;;1.08;;
80681;SDS011;70045;40.200;44.582;2024-03-23T04:34:13;1.42;;;1.00;;
80681;SDS011;70045;40.200;44.582;2024-03-23T04:36:39;3.75;;;1.20;;
80681;SDS011;70045;40.200;44.582;2024-03-23T04:39:05;5.68;;;1.40;;
80681;SDS011;70045;40.200;44.582;2024-03-23T04:41:30;3.00;;;1.30;;
80681;SDS011;70045;40.200;44.582;2024-03-23T04:43:56;2.80;;;1.13;;
80681;SDS011;70045;40.200;44.582;2024-03-23T04:46:21;3.22;;;1.10;;
80681;SDS011;70045;40.200;44.582;2024-03-23T04:48:47;1.50;;;1.10;;
80681;SDS011;70045;40.200;44.582;2024-03-23T04:51:25;2.47;;;1.40;;
80681;SDS011;70045;40.200;44.582;2024-03-23T04:53:51;1.50;;;1.13;;
80681;SDS011;70045;40.200;44.582;2024-03-23T04:56:16;3.17;;;1.40;;
80681;SDS011;70045;40.200;44.582;2024-03-23T04:58:42;2.60;;;1.27;;
80681;SDS011;70045;40.200;44.582;2024-03-23T05:01:10;3.78;;;1.23;;
80681;SDS011;70045;40.200;44.582;2024-03-23T05:03:36;3.45;;;1.30;;
80681;SDS011;70045;40.200;44.582;2024-03-23T05:06:02;2.33;;;1.30;;
80681;SDS011;70045;40.200;44.582;2024-03-23T05:08:27;3.90;;;1.48;;
80681;SDS011;70045;40.200;44.582;2024-03-23T05:10:53;1.58;;;1.08;;
80681;SDS011;70045;40.200;44.582;2024-03-23T05:13:19;2.13;;;1.20;;
80681;SDS011;70045;40.200;44.582;2024-03-23T05:15:50;2.65;;;0.90;;
80681;SDS011;70045;40.200;44.582;2024-03-23T05:18:17;2.58;;;1.25;;
80681;SDS011;70045;40.200;44.582;2024-03-23T05:20:42;2.03;;;1.13;;
80681;SDS011;70045;40.200;44.582;2024-03-23T05:23:08;1.20;;;1.05;;
80681;SDS011;70045;40.200;44.582;2024-03-23T05:25:34;1.95;;;1.05;;
80681;SDS011;70045;40.200;44.582;2024-03-23T05:27:59;1.33;;;1.20;;
80681;SDS011;70045;40.200;44.582;2024-03-23T05:30:24;2.30;;;1.20;;
80681;SDS011;70045;40.200;44.582;2024-03-23T05:32:50;1.33;;;0.93;;
80681;SDS011;70045;40.200;44.582;2024-03-23T05:35:15;1.88;;;0.95;;
80681;SDS011;70045;40.200;44.582;2024-03-23T05:37:42;1.65;;;1.20;;
80681;SDS011;70045;40.200;44.582;2024-03-23T05:40:08;1.17;;;1.00;;
80681;SDS011;70045;40.200;44.582;2024-03-23T05:42:33;2.72;;;1.20;;
80681;SDS011;70045;40.200;44.582;2024-03-23T05:44:59;1.85;;;1.23;;
80681;SDS011;70045;40.200;44.582;2024-03-23T05:47:24;1.20;;;1.05;;
80681;SDS011;70045;40.200;44.582;2024-03-23T05:49:50;3.15;;;1.20;;
80681;SDS011;70045;40.200;44.582;2024-03-23T05:52:16;5.05;;;2.00;;
80681;SDS011;70045;40.200;44.582;2024-03-23T05:54:41;2.58;;;1.70;;
80681;SDS011;70045;40.200;44.582;2024-03-23T05:57:06;4.45;;;1.90;;
80681;SDS011;70045;40.200;44.582;2024-03-23T05:59:32;3.15;;;1.70;;
80681;SDS011;70045;40.200;44.582;2024-03-23T06:01:58;2.72;;;1.60;;
80681;SDS011;70045;40.200;44.582;2024-03-23T06:04:23;4.15;;;1.73;;
80681;SDS011;70045;40.200;44.582;2024-03-23T06:06:49;5.57;;;1.70;;
80681;SDS011;70045;40.200;44.582;2024-03-23T06:09:15;2.03;;;1.30;;
80681;SDS011;70045;40.200;44.582;2024-03-23T06:11:40;1.80;;;1.15;;
80681;SDS011;70045;40.200;44.582;2024-03-23T06:14:07;4.72;;;1.30;;
80681;SDS011;70045;40.200;44.582;2024-03-23T06:16:33;7.85;;;1.30;;
80681;SDS011;70045;40.200;44.582;2024-03-23T06:18:58;5.60;;;1.85;;
80681;SDS011;70045;40.200;44.582;2024-03-23T06:21:24;7.53;;;2.25;;
80681;SDS011;70045;40.200;44.582;2024-03-23T06:23:52;4.97;;;1.90;;
80681;SDS011;70045;40.200;44.582;2024-03-23T06:26:19;4.18;;;2.10;;
80681;SDS011;70045;40.200;44.582;2024-03-23T06:28:48;4.15;;;2.20;;
80681;SDS011;70045;40.200;44.582;2024-03-23T06:31:13;5.85;;;2.40;;
80681;SDS011;70045;40.200;44.582;2024-03-23T06:33:39;8.05;;;2.47;;
80681;SDS011;70045;40.200;44.582;2024-03-23T06:36:05;4.07;;;2.33;;
80681;SDS011;70045;40.200;44.582;2024-03-23T06:38:31;4.82;;;2.28;;
80681;SDS011;70045;40.200;44.582;2024-03-23T06:40:57;7.75;;;2.35;;
80681;SDS011;70045;40.200;44.582;2024-03-23T06:43:22;8.45;;;2.42;;
80681;SDS011;70045;40.200;44.582;2024-03-23T06:45:54;5.90;;;2.78;;
80681;SDS011;70045;40.200;44.582;2024-03-23T06:48:20;6.75;;;2.10;;
80681;SDS011;70045;40.200;44.582;2024-03-23T06:50:46;6.65;;;2.17;;
80681;SDS011;70045;40.200;44.582;2024-03-23T06:53:15;7.53;;;2.55;;
80681;SDS011;70045;40.200;44.582;2024-03-23T06:55:40;9.60;;;2.47;;
80681;SDS011;70045;40.200;44.582;2024-03-23T06:58:06;9.82;;;2.80;;
80681;SDS011;70045;40.200;44.582;2024-03-23T07:00:32;8.00;;;2.58;;
80681;SDS011;70045;40.200;44.582;2024-03-23T07:03:00;7.65;;;3.13;;
80681;SDS011;70045;40.200;44.582;2024-03-23T07:05:25;9.68;;;3.45;;
80681;SDS011;70045;40.200;44.582;2024-03-23T07:07:51;10.43;;;2.38;;
80681;SDS011;70045;40.200;44.582;2024-03-23T07:10:16;8.45;;;2.28;;
80681;SDS011;70045;40.200;44.582;2024-03-23T07:12:42;7.25;;;2.10;;
80681;SDS011;70045;40.200;44.582;2024-03-23T07:15:08;9.48;;;2.03;;
80681;SDS011;70045;40.200;44.582;2024-03-23T07:17:34;5.97;;;1.90;;
80681;SDS011;70045;40.200;44.582;2024-03-23T07:19:59;3.33;;;1.67;;
80681;SDS011;70045;40.200;44.582;2024-03-23T07:22:24;9.10;;;2.15;;
80681;SDS011;70045;40.200;44.582;2024-03-23T07:24:50;9.60;;;2.55;;
80681;SDS011;70045;40.200;44.582;2024-03-23T07:27:17;6.47;;;2.10;;
80681;SDS011;70045;40.200;44.582;2024-03-23T07:29:42;3.63;;;1.83;;
80681;SDS011;70045;40.200;44.582;2024-03-23T07:32:07;3.60;;;1.75;;
80681;SDS011;70045;40.200;44.582;2024-03-23T07:34:33;5.18;;;1.70;;
80681;SDS011;70045;40.200;44.582;2024-03-23T07:36:58;5.15;;;1.73;;
80681;SDS011;70045;40.200;44.582;2024-03-23T07:39:24;6.07;;;1.73;;
80681;SDS011;70045;40.200;44.582;2024-03-23T07:41:50;11.20;;;1.67;;
80681;SDS011;70045;40.200;44.582;2024-03-23T07:44:15;6.65;;;1.80;;
80681;SDS011;70045;40.200;44.582;2024-03-23T07:46:40;4.82;;;1.48;;
80681;SDS011;70045;40.200;44.582;2024-03-23T07:49:06;5.15;;;1.70;;
80681;SDS011;70045;40.200;44.582;2024-03-23T07:51:32;4.80;;;1.27;;
80681;SDS011;70045;40.200;44.582;2024-03-23T07:53:57;2.72;;;1.40;;
80681;SDS011;70045;40.200;44.582;2024-03-23T07:56:23;4.70;;;1.50;;
80681;SDS011;70045;40.200;44.582;2024-03-23T07:58:48;3.15;;;1.40;;
80681;SDS011;70045;40.200;44.582;2024-03-23T08:01:15;2.35;;;1.52;;
80681;SDS011;70045;40.200;44.582;2024-03-23T08:03:42;2.03;;;1.40;;
80681;SDS011;70045;40.200;44.582;2024-03-23T08:06:10;12.55;;;2.05;;
80681;SDS011;70045;40.200;44.582;2024-03-23T08:08:37;5.97;;;1.80;;
80681;SDS011;70045;40.200;44.582;2024-03-23T08:11:04;4.00;;;1.77;;
80681;SDS011;70045;40.200;44.582;2024-03-23T08:13:30;2.33;;;1.30;;
80681;SDS011;70045;40.200;44.582;2024-03-23T08:16:02;3.35;;;1.67;;
80681;SDS011;70045;40.200;44.582;2024-03-23T08:18:28;4.55;;;1.70;;
80681;SDS011;70045;40.200;44.582;2024-03-23T08:20:57;2.25;;;1.50;;
80681;SDS011;70045;40.200;44.582;2024-03-23T08:23:33;6.13;;;1.75;;
80681;SDS011;70045;40.200;44.582;2024-03-23T08:26:00;2.25;;;1.55;;
80681;SDS011;70045;40.200;44.582;2024-03-23T08:28:27;2.33;;;1.60;;
80681;SDS011;70045;40.200;44.582;2024-03-23T08:30:53;5.60;;;2.08;;
80681;SDS011;70045;40.200;44.582;2024-03-23T08:33:19;6.13;;;2.33;;
80681;SDS011;70045;40.200;44.582;2024-03-23T08:36:01;5.07;;;1.80;;
80681;SDS011;70045;40.200;44.582;2024-03-23T08:38:29;6.68;;;1.88;;
80681;SDS011;70045;40.200;44.582;2024-03-23T08:40:58;4.45;;;1.90;;
80681;SDS011;70045;40.200;44.582;2024-03-23T08:43:24;5.28;;;1.70;;
80681;SDS011;70045;40.200;44.582;2024-03-23T08:45:50;5.55;;;2.05;;
80681;SDS011;70045;40.200;44.582;2024-03-23T08:48:16;4.22;;;1.90;;
80681;SDS011;70045;40.200;44.582;2024-03-23T08:50:42;5.18;;;2.05;;
80681;SDS011;70045;40.200;44.582;2024-03-23T08:53:08;4.07;;;2.13;;
80681;SDS011;70045;40.200;44.582;2024-03-23T08:55:33;5.85;;;2.72;;
80681;SDS011;70045;40.200;44.582;2024-03-23T08:57:59;7.43;;;2.50;;
80681;SDS011;70045;40.200;44.582;2024-03-23T09:00:25;7.70;;;2.30;;
80681;SDS011;70045;40.200;44.582;2024-03-23T09:02:50;6.47;;;2.35;;
80681;SDS011;70045;40.200;44.582;2024-03-23T09:05:16;5.45;;;2.20;;
80681;SDS011;70045;40.200;44.582;2024-03-23T09:07:41;7.15;;;2.53;;
80681;SDS011;70045;40.200;44.582;2024-03-23T09:10:07;7.53;;;2.70;;
80681;SDS011;70045;40.200;44.582;2024-03-23T09:12:33;6.72;;;2.60;;
80681;SDS011;70045;40.200;44.582;2024-03-23T09:14:58;7.85;;;2.80;;
80681;SDS011;70045;40.200;44.582;2024-03-23T09:17:24;12.43;;;2.95;;
80681;SDS011;70045;40.200;44.582;2024-03-23T09:19:49;12.15;;;3.13;;
80681;SDS011;70045;40.200;44.582;2024-03-23T09:22:15;7.20;;;2.53;;
80681;SDS011;70045;40.200;44.582;2024-03-23T09:24:42;9.18;;;2.92;;
80681;SDS011;70045;40.200;44.582;2024-03-23T09:27:08;3.15;;;1.95;;
80681;SDS011;70045;40.200;44.582;2024-03-23T09:29:33;6.82;;;2.30;;
80681;SDS011;70045;40.200;44.582;2024-03-23T09:31:58;4.38;;;2.10;;
80681;SDS011;70045;40.200;44.582;2024-03-23T09:34:24;6.50;;;2.45;;
80681;SDS011;70045;40.200;44.582;2024-03-23T09:36:51;4.35;;;2.03;;
80681;SDS011;70045;40.200;44.582;2024-03-23T09:39:17;7.95;;;3.22;;
80681;SDS011;70045;40.200;44.582;2024-03-23T09:41:43;4.45;;;2.40;;
80681;SDS011;70045;40.200;44.582;2024-03-23T09:44:08;10.63;;;3.08;;
80681;SDS011;70045;40.200;44.582;2024-03-23T09:46:34;5.63;;;2.30;;
80681;SDS011;70045;40.200;44.582;2024-03-23T09:49:02;6.68;;;2.33;;
80681;SDS011;70045;40.200;44.582;2024-03-23T09:51:28;6.65;;;2.00;;
80681;SDS011;70045;40.200;44.582;2024-03-23T09:53:54;7.93;;;3.20;;
80681;SDS011;70045;40.200;44.582;2024-03-23T09:56:19;4.88;;;2.22;;
80681;SDS011;70045;40.200;44.582;2024-03-23T09:58:45;3.75;;;2.03;;
80681;SDS011;70045;40.200;44.582;2024-03-23T10:01:11;7.05;;;2.30;;
80681;SDS011;70045;40.200;44.582;2024-03-23T10:03:43;5.47;;;2.28;;
80681;SDS011;70045;40.200;44.582;2024-03-23T10:06:11;4.53;;;2.03;;
80681;SDS011;70045;40.200;44.582;2024-03-23T10:08:36;6.53;;;3.05;;
80681;SDS011;70045;40.200;44.582;2024-03-23T10:11:15;5.10;;;2.40;;
80681;SDS011;70045;40.200;44.582;2024-03-23T10:13:42;4.75;;;2.53;;
80681;SDS011;70045;40.200;44.582;2024-03-23T10:16:08;4.80;;;2.70;;
80681;SDS011;70045;40.200;44.582;2024-03-23T10:18:41;8.55;;;3.47;;
80681;SDS011;70045;40.200;44.582;2024-03-23T10:23:34;9.95;;;4.38;;
80681;SDS011;70045;40.200;44.582;2024-03-23T10:26:13;5.63;;;2.72;;
80681;SDS011;70045;40.200;44.582;2024-03-23T10:31:24;4.60;;;2.20;;
80681;SDS011;70045;40.200;44.582;2024-03-23T10:33:49;7.15;;;2.25;;
80681;SDS011;70045;40.200;44.582;2024-03-23T10:36:15;3.60;;;2.35;;
80681;SDS011;70045;40.200;44.582;2024-03-23T10:38:41;4.70;;;2.38;;
80681;SDS011;70045;40.200;44.582;2024-03-23T10:41:11;4.43;;;2.35;;
80681;SDS011;70045;40.200;44.582;2024-03-23T10:43:37;5.13;;;2.45;;
80681;SDS011;70045;40.200;44.582;2024-03-23T10:46:04;4.15;;;2.53;;
80681;SDS011;70045;40.200;44.582;2024-03-23T10:48:32;4.03;;;2.50;;
80681;SDS011;70045;40.200;44.582;2024-03-23T10:50:57;3.42;;;1.83;;
80681;SDS011;70045;40.200;44.582;2024-03-23T10:53:25;4.03;;;2.05;;
80681;SDS011;70045;40.200;44.582;2024-03-23T10:55:51;2.95;;;2.00;;
80681;SDS011;70045;40.200;44.582;2024-03-23T10:58:21;4.00;;;2.53;;
80681;SDS011;70045;40.200;44.582;2024-03-23T11:03:36;4.97;;;2.17;;
80681;SDS011;70045;40.200;44.582;2024-03-23T11:06:03;3.08;;;1.83;;
80681;SDS011;70045;40.200;44.582;2024-03-23T11:08:36;3.03;;;2.03;;
80681;SDS011;70045;40.200;44.582;2024-03-23T11:11:13;5.88;;;2.58;;
80681;SDS011;70045;40.200;44.582;2024-03-23T11:13:48;4.60;;;2.50;;
80681;SDS011;70045;40.200;44.582;2024-03-23T11:16:24;4.75;;;2.47;;
80681;SDS011;70045;40.200;44.582;2024-03-23T11:18:54;4.10;;;2.13;;
80681;SDS011;70045;40.200;44.582;2024-03-23T11:21:51;4.00;;;2.33;;
80681;SDS011;70045;40.200;44.582;2024-03-23T11:24:20;3.88;;;2.58;;
80681;SDS011;70045;40.200;44.582;2024-03-23T11:26:46;3.47;;;2.33;;
80681;SDS011;70045;40.200;44.582;2024-03-23T11:29:14;5.30;;;2.92;;
80681;SDS011;70045;40.200;44.582;2024-03-23T11:31:47;4.85;;;2.60;;
80681;SDS011;70045;40.200;44.582;2024-03-23T11:34:14;3.85;;;2.28;;
80681;SDS011;70045;40.200;44.582;2024-03-23T11:36:41;3.47;;;2.30;;
80681;SDS011;70045;40.200;44.582;2024-03-23T11:39:13;4.72;;;2.55;;
80681;SDS011;70045;40.200;44.582;2024-03-23T11:46:41;7.35;;;3.53;;
80681;SDS011;70045;40.200;44.582;2024-03-23T11:49:19;6.95;;;3.58;;
80681;SDS011;70045;40.200;44.582;2024-03-23T11:51:48;7.55;;;3.63;;
80681;SDS011;70045;40.200;44.582;2024-03-23T11:54:14;5.88;;;3.28;;
80681;SDS011;70045;40.200;44.582;2024-03-23T11:56:40;7.32;;;3.50;;
80681;SDS011;70045;40.200;44.582;2024-03-23T11:59:08;10.80;;;3.85;;
80681;SDS011;70045;40.200;44.582;2024-03-23T12:01:36;6.88;;;3.65;;
80681;SDS011;70045;40.200;44.582;2024-03-23T12:04:02;7.68;;;3.72;;
80681;SDS011;70045;40.200;44.582;2024-03-23T12:06:28;12.40;;;3.80;;
80681;SDS011;70045;40.200;44.582;2024-03-23T12:08:53;7.82;;;4.20;;
80681;SDS011;70045;40.200;44.582;2024-03-23T12:11:30;9.40;;;4.55;;
80681;SDS011;70045;40.200;44.582;2024-03-23T12:13:56;8.55;;;4.05;;
80681;SDS011;70045;40.200;44.582;2024-03-23T12:16:25;7.35;;;4.22;;
80681;SDS011;70045;40.200;44.582;2024-03-23T12:18:51;6.85;;;3.63;;
80681;SDS011;70045;40.200;44.582;2024-03-23T12:21:17;7.15;;;3.92;;
80681;SDS011;70045;40.200;44.582;2024-03-23T12:23:43;7.05;;;4.13;;
80681;SDS011;70045;40.200;44.582;2024-03-23T12:26:11;7.63;;;3.85;;
80681;SDS011;70045;40.200;44.582;2024-03-23T12:28:37;8.43;;;4.35;;
80681;SDS011;70045;40.200;44.582;2024-03-23T12:31:03;12.50;;;5.07;;
80681;SDS011;70045;40.200;44.582;2024-03-23T12:33:29;11.27;;;5.93;;
80681;SDS011;70045;40.200;44.582;2024-03-23T12:35:54;13.75;;;6.20;;
80681;SDS011;70045;40.200;44.582;2024-03-23T12:38:22;10.30;;;5.53;;
80681;SDS011;70045;40.200;44.582;2024-03-23T12:40:48;12.07;;;5.85;;
80681;SDS011;70045;40.200;44.582;2024-03-23T12:43:16;11.07;;;6.00;;
80681;SDS011;70045;40.200;44.582;2024-03-23T12:45:46;11.35;;;5.13;;
80681;SDS011;70045;40.200;44.582;2024-03-23T12:48:12;12.93;;;6.30;;
80681;SDS011;70045;40.200;44.582;2024-03-23T12:50:38;9.63;;;5.47;;
80681;SDS011;70045;40.200;44.582;2024-03-23T12:53:03;12.77;;;5.93;;
80681;SDS011;70045;40.200;44.582;2024-03-23T12:55:29;11.50;;;5.70;;
80681;SDS011;70045;40.200;44.582;2024-03-23T12:57:54;12.75;;;6.50;;
80681;SDS011;70045;40.200;44.582;2024-03-23T13:00:20;11.88;;;5.75;;
80681;SDS011;70045;40.200;44.582;2024-03-23T13:02:46;14.23;;;5.25;;
80681;SDS011;70045;40.200;44.582;2024-03-23T13:05:11;10.27;;;5.43;;
80681;SDS011;70045;40.200;44.582;2024-03-23T13:07:37;9.65;;;5.53;;
80681;SDS011;70045;40.200;44.582;2024-03-23T13:10:02;11.75;;;6.22;;
80681;SDS011;70045;40.200;44.582;2024-03-23T13:12:28;11.13;;;6.03;;
80681;SDS011;70045;40.200;44.582;2024-03-23T13:14:54;12.10;;;6.00;;
80681;SDS011;70045;40.200;44.582;2024-03-23T13:17:20;10.13;;;5.32;;
80681;SDS011;70045;40.200;44.582;2024-03-23T13:19:45;10.80;;;6.28;;
80681;SDS011;70045;40.200;44.582;2024-03-23T13:22:11;10.25;;;5.38;;
80681;SDS011;70045;40.200;44.582;2024-03-23T13:24:37;10.95;;;5.43;;
80681;SDS011;70045;40.200;44.582;2024-03-23T13:27:04;10.63;;;5.55;;
80681;SDS011;70045;40.200;44.582;2024-03-23T13:29:30;9.75;;;5.78;;
80681;SDS011;70045;40.200;44.582;2024-03-23T13:31:55;11.98;;;6.00;;
80681;SDS011;70045;40.200;44.582;2024-03-23T13:34:21;9.43;;;5.13;;
80681;SDS011;70045;40.200;44.582;2024-03-23T13:36:47;14.35;;;6.22;;
80681;SDS011;70045;40.200;44.582;2024-03-23T13:39:13;10.63;;;6.32;;
80681;SDS011;70045;40.200;44.582;2024-03-23T13:41:43;15.40;;;6.80;;
80681;SDS011;70045;40.200;44.582;2024-03-23T13:44:10;9.95;;;5.82;;
80681;SDS011;70045;40.200;44.582;2024-03-23T13:46:37;9.95;;;5.90;;
80681;SDS011;70045;40.200;44.582;2024-03-23T13:49:03;12.73;;;5.78;;
80681;SDS011;70045;40.200;44.582;2024-03-23T13:51:30;14.90;;;6.32;;
80681;SDS011;70045;40.200;44.582;2024-03-23T13:53:56;9.93;;;6.13;;
80681;SDS011;70045;40.200;44.582;2024-03-23T13:56:22;9.20;;;5.43;;
80681;SDS011;70045;40.200;44.582;2024-03-23T13:58:48;8.95;;;4.55;;
80681;SDS011;70045;40.200;44.582;2024-03-23T14:01:14;6.82;;;4.00;;
80681;SDS011;70045;40.200;44.582;2024-03-23T14:03:42;7.93;;;4.97;;
80681;SDS011;70045;40.200;44.582;2024-03-23T14:06:08;7.75;;;4.53;;
80681;SDS011;70045;40.200;44.582;2024-03-23T14:08:37;9.07;;;4.75;;
80681;SDS011;70045;40.200;44.582;2024-03-23T14:11:03;7.53;;;4.50;;
80681;SDS011;70045;40.200;44.582;2024-03-23T14:13:29;8.02;;;4.10;;
80681;SDS011;70045;40.200;44.582;2024-03-23T14:15:55;8.88;;;5.18;;
80681;SDS011;70045;40.200;44.582;2024-03-23T14:18:24;10.88;;;5.03;;
80681;SDS011;70045;40.200;44.582;2024-03-23T14:20:51;10.32;;;5.20;;
80681;SDS011;70045;40.200;44.582;2024-03-23T14:23:21;9.32;;;4.90;;
80681;SDS011;70045;40.200;44.582;2024-03-23T14:25:46;12.50;;;4.97;;
80681;SDS011;70045;40.200;44.582;2024-03-23T14:28:13;8.50;;;4.22;;
80681;SDS011;70045;40.200;44.582;2024-03-23T14:30:39;11.13;;;4.30;;
80681;SDS011;70045;40.200;44.582;2024-03-23T14:33:06;6.68;;;3.88;;
80681;SDS011;70045;40.200;44.582;2024-03-23T14:35:31;6.93;;;4.22;;
80681;SDS011;70045;40.200;44.582;2024-03-23T14:37:57;6.25;;;3.80;;
80681;SDS011;70045;40.200;44.582;2024-03-23T14:40:23;5.70;;;3.85;;
80681;SDS011;70045;40.200;44.582;2024-03-23T14:42:48;8.00;;;4.13;;
80681;SDS011;70045;40.200;44.582;2024-03-23T14:45:13;8.82;;;4.10;;
80681;SDS011;70045;40.200;44.582;2024-03-23T14:47:39;7.13;;;4.07;;
80681;SDS011;70045;40.200;44.582;2024-03-23T14:50:05;10.18;;;5.85;;
80681;SDS011;70045;40.200;44.582;2024-03-23T14:52:31;10.90;;;5.45;;
80681;SDS011;70045;40.200;44.582;2024-03-23T14:54:56;11.27;;;4.55;;
80681;SDS011;70045;40.200;44.582;2024-03-23T14:57:22;7.43;;;4.05;;
80681;SDS011;70045;40.200;44.582;2024-03-23T14:59:47;9.13;;;3.53;;
80681;SDS011;70045;40.200;44.582;2024-03-23T15:02:12;5.85;;;3.35;;
80681;SDS011;70045;40.200;44.582;2024-03-23T15:04:38;6.35;;;3.38;;
80681;SDS011;70045;40.200;44.582;2024-03-23T15:07:04;7.05;;;3.72;;
80681;SDS011;70045;40.200;44.582;2024-03-23T15:09:29;5.80;;;3.22;;
80681;SDS011;70045;40.200;44.582;2024-03-23T15:11:55;7.30;;;3.60;;
80681;SDS011;70045;40.200;44.582;2024-03-23T15:14:20;6.75;;;3.72;;
80681;SDS011;70045;40.200;44.582;2024-03-23T15:16:46;6.45;;;3.63;;
80681;SDS011;70045;40.200;44.582;2024-03-23T15:19:12;6.93;;;3.80;;
80681;SDS011;70045;40.200;44.582;2024-03-23T15:21:37;5.30;;;3.22;;
80681;SDS011;70045;40.200;44.582;2024-03-23T15:24:03;6.53;;;3.78;;
80681;SDS011;70045;40.200;44.582;2024-03-23T15:26:28;6.00;;;3.35;;
80681;SDS011;70045;40.200;44.582;2024-03-23T15:28:55;7.40;;;4.03;;
80681;SDS011;70045;40.200;44.582;2024-03-23T15:31:20;9.13;;;4.70;;
80681;SDS011;70045;40.200;44.582;2024-03-23T15:33:46;7.65;;;4.60;;
80681;SDS011;70045;40.200;44.582;2024-03-23T15:36:11;6.38;;;3.55;;
80681;SDS011;70045;40.200;44.582;2024-03-23T15:38:37;7.30;;;3.95;;